Time;durP1;ratioP1;P1;durP2;ratioP2;P2;SDS_P1;SDS_P2;PMS_P1;PMS_P2;Temp;Humidity;BMP_temperature;BMP_pressure;BME280_temperature;BME280_humidity;BME280_pressure;Samples;Min_cycle;Max_cycle;Signal;HPM_P1;HPM_P2
2021/03/25 00:00:14;;;;;;;29.85;17.83;;;;;;;7.79;51.94;100469.69;4469423;32;34564;-87
2021/03/25 00:02:42;;;;;;;28.17;17.08;;;;;;;7.75;52.05;100467.87;4455238;32;34154;-87
2021/03/25 00:05:12;;;;;;;26.83;16.75;;;;;;;7.75;51.96;100473.06;4468227;32;33625;-87
2021/03/25 00:07:41;;;;;;;31.45;18.73;;;;;;;7.63;52.08;100467.59;4468266;32;34325;-87
2021/03/25 00:10:26;;;;;;;27.90;16.30;;;;;;;7.51;52.51;100463.87;4468406;32;34633;-87
2021/03/25 00:12:54;;;;;;;30.58;17.75;;;;;;;7.48;52.31;100475.91;4468168;32;33220;-87
2021/03/25 00:15:21;;;;;;;29.73;17.23;;;;;;;7.40;52.48;100465.34;4455240;32;33476;-87
2021/03/25 00:17:49;;;;;;;34.50;17.90;;;;;;;7.43;52.59;100468.03;4468033;32;34619;-87
2021/03/25 00:20:17;;;;;;;34.33;18.52;;;;;;;7.48;52.40;100465.53;4455145;32;33760;-87
2021/03/25 00:22:45;;;;;;;33.80;18.50;;;;;;;7.40;52.75;100467.94;4461180;32;32159;-87
2021/03/25 00:25:18;;;;;;;33.78;18.60;;;;;;;7.32;52.99;100471.22;4485140;32;34709;-87
2021/03/25 00:27:45;;;;;;;33.78;19.40;;;;;;;7.37;52.88;100470.47;4477468;32;34383;-87
2021/03/25 00:30:14;;;;;;;32.88;18.55;;;;;;;7.26;53.47;100471.94;4470795;32;34219;-87
2021/03/25 00:32:42;;;;;;;34.42;19.08;;;;;;;7.33;53.05;100468.66;4457693;32;33135;-87
2021/03/25 00:35:11;;;;;;;33.08;18.90;;;;;;;7.34;52.83;100470.41;4484573;32;33904;-86
2021/03/25 00:37:39;;;;;;;31.70;18.52;;;;;;;7.34;53.04;100467.81;4482277;32;34254;-87
2021/03/25 00:40:08;;;;;;;36.05;17.90;;;;;;;7.17;53.37;100463.97;4469388;32;34895;-87
2021/03/25 00:42:36;;;;;;;32.42;17.77;;;;;;;7.28;53.40;100464.19;4470036;32;33627;-87
2021/03/25 00:45:12;;;;;;;35.05;17.90;;;;;;;7.41;52.77;100466.25;4470850;32;34155;-87
2021/03/25 00:47:43;;;;;;;31.75;18.50;;;;;;;7.21;53.08;100463.19;4484945;32;35281;-87
2021/03/25 00:50:35;;;;;;;30.52;17.15;;;;;;;7.37;52.92;100464.41;4487000;32;34828;-87
2021/03/25 00:53:03;;;;;;;31.40;17.80;;;;;;;7.23;53.37;100460.63;4485685;32;33095;-87
2021/03/25 00:55:31;;;;;;;29.55;17.17;;;;;;;7.14;53.51;100466.47;4472767;32;34419;-87
2021/03/25 00:57:58;;;;;;;30.00;16.95;;;;;;;7.21;53.31;100463.19;4473088;32;35296;-87
2021/03/25 01:00:29;;;;;;;33.95;17.77;;;;;;;7.27;53.31;100463.31;4473217;32;33409;-87
2021/03/25 01:02:56;;;;;;;29.92;17.20;;;;;;;7.22;53.34;100461.47;4472631;32;32311;-87
2021/03/25 01:05:25;;;;;;;31.17;17.90;;;;;;;7.36;52.96;100463.56;4485452;32;35143;-87
2021/03/25 01:07:52;;;;;;;29.87;16.12;;;;;;;7.32;53.22;100466.03;4472964;32;34215;-87
2021/03/25 01:10:28;;;;;;;33.47;18.60;;;;;;;7.38;53.09;100461.00;4459642;32;33802;-87
2021/03/25 01:12:57;;;;;;;28.30;17.27;;;;;;;7.37;52.91;100454.94;4485726;32;33426;-87
2021/03/25 01:15:27;;;;;;;29.05;17.08;;;;;;;7.41;52.74;100458.47;4472876;32;33995;-87
2021/03/25 01:17:56;;;;;;;30.12;18.02;;;;;;;7.32;53.26;100461.72;4485839;32;35919;-87
2021/03/25 01:20:37;;;;;;;31.12;17.83;;;;;;;7.44;52.86;100453.38;4472942;32;33754;-87
2021/03/25 01:23:14;;;;;;;28.40;17.08;;;;;;;7.55;52.62;100458.78;4461846;32;33887;-87
2021/03/25 01:25:43;;;;;;;29.65;17.23;;;;;;;6.92;54.08;100459.00;4472702;32;33677;-87
2021/03/25 01:28:13;;;;;;;28.92;16.95;;;;;;;7.13;53.60;100454.34;4485399;32;34257;-87
2021/03/25 01:30:42;;;;;;;28.20;15.68;;;;;;;7.24;53.48;100454.63;4485599;32;33833;-87
2021/03/25 01:33:13;;;;;;;32.83;16.92;;;;;;;7.12;53.56;100450.03;4472933;32;33715;-87
2021/03/25 01:35:41;;;;;;;29.52;16.77;;;;;;;7.19;53.33;100451.94;4459864;32;34090;-87
2021/03/25 01:38:14;;;;;;;29.98;16.45;;;;;;;7.22;53.42;100449.44;4472558;32;35140;-87
2021/03/25 01:40:44;;;;;;;26.05;15.93;;;;;;;7.05;53.87;100440.37;4485881;32;33767;-87
2021/03/25 01:43:20;;;;;;;31.65;17.65;;;;;;;7.20;53.40;100448.47;4485483;32;33254;-87
2021/03/25 01:46:03;;;;;;;29.33;17.20;;;;;;;7.31;53.19;100452.22;4471064;32;33787;-87
2021/03/25 01:48:34;;;;;;;30.75;17.00;;;;;;;7.27;53.68;100447.78;4472521;32;33981;-87
2021/03/25 01:51:12;;;;;;;33.75;17.73;;;;;;;7.14;53.96;100440.59;4473084;32;34277;-87
2021/03/25 01:53:58;;;;;;;30.85;16.83;;;;;;;6.94;54.87;100443.56;4459984;32;35412;-88
2021/03/25 01:56:49;;;;;;;30.52;17.52;;;;;;;7.05;54.51;100448.16;4491719;32;34112;-87
2021/03/25 02:00:00;;;;;;;28.08;17.60;;;;;;;7.21;54.05;100451.97;4485535;32;35223;-87
2021/03/25 02:02:36;;;;;;;28.45;16.55;;;;;;;7.16;53.86;100444.09;4486288;32;35638;-87
2021/03/25 02:05:27;;;;;;;33.45;17.42;;;;;;;7.16;53.92;100449.25;4486640;32;33363;-87
2021/03/25 02:08:05;;;;;;;32.65;19.02;;;;;;;7.35;53.42;100441.09;4485550;32;34692;-87
2021/03/25 02:11:08;;;;;;;35.30;18.80;;;;;;;7.41;52.90;100442.94;4485228;32;34320;-87
2021/03/25 02:14:01;;;;;;;30.42;17.48;;;;;;;7.24;53.77;100447.75;4475817;31;33592;-87
2021/03/25 02:16:36;;;;;;;34.25;17.25;;;;;;;7.29;53.49;100446.13;4472184;32;32918;-87
2021/03/25 02:19:17;;;;;;;32.38;18.52;;;;;;;7.15;53.95;100444.94;4471881;32;32152;-87
2021/03/25 02:21:45;;;;;;;29.40;15.90;;;;;;;7.34;53.69;100436.78;4485032;32;34303;-87
2021/03/25 02:24:15;;;;;;;30.27;17.15;;;;;;;7.39;53.57;100442.91;4485287;32;34694;-87
2021/03/25 02:26:52;;;;;;;30.95;17.77;;;;;;;7.50;52.83;100436.25;4485401;32;33605;-87
2021/03/25 02:29:58;;;;;;;32.85;17.58;;;;;;;7.39;52.84;100437.72;4459325;32;34725;-87
2021/03/25 02:32:28;;;;;;;28.90;16.37;;;;;;;7.20;53.98;100435.56;4424336;32;33891;-87
2021/03/25 02:35:19;;;;;;;29.60;17.42;;;;;;;7.40;53.26;100434.31;4437381;32;33796;-87
2021/03/25 02:37:51;;;;;;;27.60;17.35;;;;;;;7.45;53.34;100432.69;4469181;32;33539;-87
2021/03/25 02:40:31;;;;;;;30.90;17.48;;;;;;;7.24;53.78;100439.97;4472311;32;33965;-87
2021/03/25 02:43:03;;;;;;;29.35;17.55;;;;;;;7.37;53.71;100433.34;4472008;32;35240;-87
2021/03/25 02:45:37;;;;;;;34.78;17.50;;;;;;;7.15;53.91;100432.00;4484956;32;34252;-87
2021/03/25 02:48:14;;;;;;;32.40;18.05;;;;;;;7.11;54.25;100439.63;4485317;32;33255;-87
2021/03/25 02:51:00;;;;;;;28.62;17.62;;;;;;;7.17;54.37;100438.09;4472194;32;34730;-87
2021/03/25 02:53:35;;;;;;;32.55;18.35;;;;;;;7.33;54.00;100432.41;4472407;32;34226;-87
2021/03/25 02:56:07;;;;;;;29.83;16.70;;;;;;;7.58;53.26;100436.44;4471886;32;33890;-87
2021/03/25 02:58:37;;;;;;;33.10;18.73;;;;;;;7.28;53.89;100439.19;4471777;32;33221;-87
2021/03/25 03:01:09;;;;;;;33.28;18.10;;;;;;;7.31;53.80;100433.22;4458774;32;32550;-87
2021/03/25 03:03:44;;;;;;;;;;;;;;;7.16;54.12;100433.75;4485949;32;34480;-87
2021/03/25 03:06:16;;;;;;;30.90;16.98;;;;;;;7.26;54.30;100430.53;4472449;32;34112;-87
2021/03/25 03:08:46;;;;;;;26.25;15.25;;;;;;;7.36;54.04;100434.22;4471629;32;32796;-87
2021/03/25 03:11:45;;;;;;;23.92;13.68;;;;;;;7.16;53.67;100435.44;4485002;32;33638;-87
2021/03/25 03:14:22;;;;;;;24.52;14.30;;;;;;;6.70;54.58;100436.06;4469770;32;35242;-87
2021/03/25 03:16:51;;;;;;;23.27;13.43;;;;;;;7.16;53.56;100438.91;4458868;32;33146;-87
2021/03/25 03:19:26;;;;;;;23.23;13.95;;;;;;;7.08;53.88;100439.59;4471908;32;33078;-87
2021/03/25 03:21:57;;;;;;;21.27;13.05;;;;;;;7.20;53.53;100443.31;4485679;31;33826;-87
2021/03/25 03:24:26;;;;;;;26.60;14.73;;;;;;;6.61;54.54;100441.84;4491806;31;34679;-85
2021/03/25 03:26:57;;;;;;;23.58;13.90;;;;;;;7.01;53.74;100440.28;4474085;31;32284;-85
2021/03/25 03:29:27;;;;;;;25.20;14.07;;;;;;;6.97;54.17;100435.84;4474124;31;34143;-85
2021/03/25 03:32:36;;;;;;;27.55;14.55;;;;;;;7.33;53.04;100436.72;4473825;31;32263;-85
2021/03/25 03:35:15;;;;;;;30.83;14.63;;;;;;;7.19;53.50;100443.28;4436437;32;34174;-85
2021/03/25 03:37:46;;;;;;;28.23;16.33;;;;;;;7.21;53.63;100439.91;4480291;31;33964;-85
2021/03/25 03:40:18;;;;;;;26.58;15.13;;;;;;;7.18;53.88;100447.59;4487241;31;34115;-85
2021/03/25 03:42:58;;;;;;;26.33;15.57;;;;;;;7.32;53.80;100446.19;4476071;31;33796;-85
2021/03/25 03:45:26;;;;;;;25.42;15.50;;;;;;;7.21;54.00;100444.19;4474105;31;35310;-85
2021/03/25 03:48:01;;;;;;;29.17;16.40;;;;;;;7.37;53.73;100439.41;4474624;31;35004;-85
2021/03/25 03:50:33;;;;;;;26.45;14.50;;;;;;;7.42;53.67;100434.31;4474392;31;34077;-85
2021/03/25 03:53:00;;;;;;;26.67;15.85;;;;;;;7.40;53.63;100444.66;4486583;31;33509;-85
2021/03/25 03:55:29;;;;;;;27.65;16.05;;;;;;;7.22;54.39;100448.53;4473631;31;34468;-85
2021/03/25 03:58:09;;;;;;;26.87;15.00;;;;;;;7.39;54.05;100448.06;4473462;31;34754;-85
2021/03/25 04:00:43;;;;;;;29.45;16.02;;;;;;;7.41;54.01;100446.41;4500951;31;34037;-85
2021/03/25 04:03:24;;;;;;;26.20;15.88;;;;;;;7.60;53.67;100441.63;4473707;31;33816;-87
2021/03/25 04:05:57;;;;;;;29.92;16.52;;;;;;;7.47;53.83;100441.38;4474256;31;34798;-87
2021/03/25 04:08:39;;;;;;;26.85;16.25;;;;;;;7.33;54.28;100441.88;4474076;31;34687;-87
2021/03/25 04:11:20;;;;;;;27.37;16.05;;;;;;;7.43;54.16;100444.72;4500811;31;33441;-87
2021/03/25 04:13:56;;;;;;;26.12;15.15;;;;;;;7.37;54.51;100448.88;4487103;31;34537;-87
2021/03/25 04:16:25;;;;;;;27.15;14.75;;;;;;;7.34;54.40;100446.25;4473884;31;34344;-87
2021/03/25 04:18:58;;;;;;;27.25;15.98;;;;;;;7.25;54.63;100446.03;4473692;31;35266;-87
2021/03/25 04:21:35;;;;;;;32.85;15.77;;;;;;;7.44;54.16;100445.62;4474008;31;31943;-87
2021/03/25 04:24:05;;;;;;;25.80;15.48;;;;;;;7.30;54.49;100447.00;4475348;31;34106;-86
2021/03/25 04:26:38;;;;;;;29.77;17.50;;;;;;;7.39;54.54;100445.47;4488587;31;34364;-87
2021/03/25 04:29:29;;;;;;;26.48;15.82;;;;;;;7.33;54.71;100447.94;4475377;31;32754;-87
2021/03/25 04:31:57;;;;;;;29.87;16.40;;;;;;;7.49;54.49;100447.44;4502800;31;33439;-87
2021/03/25 04:34:25;;;;;;;28.52;16.20;;;;;;;7.38;54.49;100446.34;4475634;31;33735;-87
2021/03/25 04:36:53;;;;;;;30.58;17.77;;;;;;;7.24;55.14;100455.50;4462524;31;35760;-87
2021/03/25 04:39:21;;;;;;;28.38;16.33;;;;;;;7.45;54.78;100463.75;4462516;31;36216;-87
2021/03/25 04:41:48;;;;;;;26.27;15.93;;;;;;;7.62;54.23;100460.66;4502896;31;33994;-87
2021/03/25 04:44:33;;;;;;;29.23;16.15;;;;;;;7.68;54.05;100455.62;4475585;31;34707;-87
2021/03/25 04:47:06;;;;;;;34.05;17.10;;;;;;;7.43;54.48;100455.09;4475384;31;36021;-87
2021/03/25 04:49:37;;;;;;;;;;;;;;;7.51;54.58;100458.69;4476654;31;34228;-87
2021/03/25 04:52:11;;;;;;;33.95;18.98;;;;;;;7.32;55.29;100466.88;4480729;31;33505;-87
2021/03/25 04:54:39;;;;;;;30.73;17.35;;;;;;;7.44;54.65;100451.63;4475590;31;33854;-87
2021/03/25 04:57:28;;;;;;;31.85;18.37;;;;;;;7.50;54.57;100461.28;4488153;31;33222;-87
2021/03/25 04:59:57;;;;;;;31.05;17.67;;;;;;;7.16;55.76;100464.78;4488468;31;34709;-87
2021/03/25 05:02:35;;;;;;;33.78;18.50;;;;;;;7.46;55.15;100460.31;4475479;31;33934;-87
2021/03/25 05:05:04;;;;;;;43.53;22.33;;;;;;;7.60;54.85;100462.34;4502614;31;33643;-87
2021/03/25 05:07:38;;;;;;;36.75;19.95;;;;;;;7.53;55.00;100464.78;4475206;31;36557;-87
2021/03/25 05:10:46;;;;;;;36.55;18.73;;;;;;;7.28;55.52;100478.00;4475162;31;35412;-87
2021/03/25 05:13:33;;;;;;;34.78;18.80;;;;;;;7.41;55.12;100472.31;4487681;31;33294;-87
2021/03/25 05:16:22;;;;;;;32.83;18.20;;;;;;;7.47;55.47;100471.53;4475288;31;34601;-86
2021/03/25 05:19:15;;;;;;;37.85;19.35;;;;;;;7.44;55.41;100469.75;4502017;31;34375;-87
2021/03/25 05:21:57;;;;;;;36.28;18.50;;;;;;;7.41;55.81;100474.87;4487979;31;34015;-87
2021/03/25 05:24:31;;;;;;;33.58;18.77;;;;;;;7.85;54.31;100480.16;4487779;31;34130;-87
2021/03/25 05:27:10;;;;;;;38.78;19.73;;;;;;;7.85;54.76;100481.03;4474309;31;34062;-87
2021/03/25 05:29:39;;;;;;;34.33;18.77;;;;;;;7.89;54.80;100471.63;4474702;31;34208;-87
2021/03/25 05:32:08;;;;;;;33.95;18.05;;;;;;;7.73;54.94;100475.59;4474913;31;33922;-87
2021/03/25 05:34:38;;;;;;;32.80;18.70;;;;;;;7.72;55.19;100475.56;4488301;31;33891;-87
2021/03/25 05:37:07;;;;;;;32.22;19.55;;;;;;;7.75;55.27;100480.81;4475489;31;34681;-87
2021/03/25 05:39:35;;;;;;;35.80;19.20;;;;;;;7.77;55.53;100481.72;4462224;31;34804;-87
2021/03/25 05:42:28;;;;;;;36.47;19.58;;;;;;;7.89;54.47;100482.00;4488128;31;33970;-87
2021/03/25 05:45:01;;;;;;;34.20;19.20;;;;;;;7.93;54.45;100486.38;4488089;31;32977;-86
2021/03/25 05:47:42;;;;;;;33.92;19.00;;;;;;;8.10;53.78;100482.44;4502519;31;34630;-87
2021/03/25 05:50:38;;;;;;;35.65;19.27;;;;;;;7.91;54.91;100480.28;4474710;31;36050;-87
2021/03/25 05:53:47;;;;;;;31.98;19.23;;;;;;;8.10;54.18;100479.84;4487481;31;33560;-87
2021/03/25 05:56:22;;;;;;;34.13;18.42;;;;;;;8.24;53.63;100486.16;4487571;31;34322;-87
2021/03/25 05:58:55;;;;;;;39.88;21.00;;;;;;;8.36;52.79;100494.22;4488087;31;33653;-86
2021/03/25 06:01:36;;;;;;;42.75;22.83;;;;;;;8.30;53.53;100485.44;4475109;31;34352;-87
2021/03/25 06:04:13;;;;;;;47.22;25.50;;;;;;;8.23;52.84;100491.31;4475076;31;33910;-86
2021/03/25 06:07:10;;;;;;;39.90;22.52;;;;;;;8.27;53.13;100491.47;4502252;31;34551;-86
2021/03/25 06:10:00;;;;;;;42.20;22.35;;;;;;;8.45;52.71;100491.81;4502337;31;33671;-86
2021/03/25 06:13:21;;;;;;;38.50;20.85;;;;;;;8.49;52.64;100497.91;4487823;31;35062;-85
2021/03/25 06:16:16;;;;;;;36.95;18.95;;;;;;;8.33;53.35;100499.34;4409604;32;34981;-85
2021/03/25 06:19:20;;;;;;;31.25;18.92;;;;;;;8.37;53.05;100501.13;4411827;32;34219;-87
2021/03/25 06:22:09;;;;;;;34.05;19.77;;;;;;;8.70;51.78;100501.78;4487525;31;35660;-85
2021/03/25 06:25:06;;;;;;;36.00;20.27;;;;;;;8.68;51.63;100505.19;4461722;31;33788;-86
2021/03/25 06:28:07;;;;;;;35.92;19.52;;;;;;;8.61;52.16;100514.56;4502053;31;34738;-85
2021/03/25 06:30:38;;;;;;;40.53;21.10;;;;;;;8.77;51.15;100506.22;4487548;31;32436;-84
2021/03/25 06:33:13;;;;;;;34.90;19.90;;;;;;;8.73;51.18;100501.84;4487643;31;34604;-84
2021/03/25 06:35:48;;;;;;;37.47;20.20;;;;;;;8.78;51.18;100507.97;4487629;31;35597;-84
2021/03/25 06:38:28;;;;;;;34.10;19.75;;;;;;;8.95;50.52;100520.38;4487636;31;34045;-84
2021/03/25 06:41:15;;;;;;;32.33;20.30;;;;;;;9.00;50.29;100523.94;4475542;31;33371;-85
2021/03/25 06:43:46;;;;;;;35.67;19.77;;;;;;;9.05;50.58;100517.97;4501006;31;34340;-84
2021/03/25 06:46:24;;;;;;;31.20;18.60;;;;;;;9.17;50.58;100517.31;4487538;31;34329;-85
2021/03/25 06:48:55;;;;;;;38.97;20.15;;;;;;;9.33;50.12;100519.31;4474597;31;32897;-85
2021/03/25 06:51:31;;;;;;;33.60;18.52;;;;;;;9.39;49.73;100519.38;4501906;31;33337;-85
2021/03/25 06:54:08;;;;;;;36.78;20.27;;;;;;;9.47;48.88;100517.78;4474829;31;33337;-85
2021/03/25 06:56:38;;;;;;;29.92;16.95;;;;;;;9.71;47.27;100531.16;4502589;31;35316;-85
2021/03/25 06:59:09;;;;;;;25.35;14.13;;;;;;;9.81;46.84;100530.44;4462884;31;34625;-85
2021/03/25 07:01:47;;;;;;;27.20;14.38;;;;;;;9.95;42.51;100530.62;4476561;31;33952;-85
2021/03/25 07:04:20;;;;;;;20.95;12.90;;;;;;;10.08;42.39;100535.13;4474357;31;33094;-85
2021/03/25 07:06:48;;;;;;;24.37;14.38;;;;;;;10.15;40.33;100537.88;4487519;31;34452;-85
2021/03/25 07:09:16;;;;;;;20.05;12.40;;;;;;;10.34;39.64;100538.13;4470345;31;33821;-85
2021/03/25 07:11:44;;;;;;;22.73;13.02;;;;;;;10.35;39.31;100529.44;4465185;31;33138;-85
2021/03/25 07:14:18;;;;;;;27.42;12.98;;;;;;;10.51;38.59;100526.16;4487331;31;32486;-85
2021/03/25 07:16:47;;;;;;;23.20;13.57;;;;;;;10.64;38.18;100539.34;4487496;31;34516;-85
2021/03/25 07:19:21;;;;;;;24.20;13.75;;;;;;;10.58;37.04;100538.37;4483706;32;34801;-85
2021/03/25 07:21:52;;;;;;;20.55;10.68;;;;;;;10.65;37.48;100535.87;4471965;32;34173;-85
2021/03/25 07:24:25;;;;;;;16.58;9.55;;;;;;;10.67;35.59;100541.13;4460027;32;33782;-85
2021/03/25 07:26:56;;;;;;;16.20;10.00;;;;;;;10.81;34.82;100539.53;4470551;32;32095;-85
2021/03/25 07:29:34;;;;;;;16.50;10.48;;;;;;;10.89;34.18;100535.25;4458462;32;33640;-85
2021/03/25 07:32:05;;;;;;;16.35;9.90;;;;;;;11.08;33.57;100526.78;4458487;32;33408;-85
2021/03/25 07:34:37;;;;;;;15.95;9.85;;;;;;;10.89;32.71;100530.06;4471231;32;34593;-85
2021/03/25 07:37:10;;;;;;;16.55;8.98;;;;;;;11.03;33.34;100533.66;4470873;32;34109;-85
2021/03/25 07:39:49;;;;;;;16.58;9.30;;;;;;;11.14;33.07;100536.38;4467317;32;34714;-84
2021/03/25 07:42:27;;;;;;;13.77;9.85;;;;;;;11.39;32.28;100533.13;4455192;32;33427;-84
2021/03/25 07:45:21;;;;;;;15.98;9.38;;;;;;;11.36;32.19;100528.75;4468212;32;33680;-84
2021/03/25 07:47:51;;;;;;;16.65;9.48;;;;;;;11.47;31.04;100540.16;4456879;32;35896;-86
2021/03/25 07:50:30;;;;;;;16.02;8.80;;;;;;;11.41;29.75;100536.63;4442559;32;34115;-86
2021/03/25 07:52:58;;;;;;;15.65;8.80;;;;;;;11.43;30.53;100530.53;4459828;32;33159;-86
2021/03/25 07:55:29;;;;;;;14.90;8.93;;;;;;;11.43;29.59;100535.75;4455836;32;33797;-86
2021/03/25 07:57:57;;;;;;;13.43;8.95;;;;;;;11.44;30.30;100527.09;4456626;32;36546;-86
2021/03/25 08:00:34;;;;;;;17.62;9.65;;;;;;;11.51;30.25;100528.00;4444622;32;34556;-85
2021/03/25 08:03:21;;;;;;;18.30;8.68;;;;;;;11.71;29.77;100530.78;4457350;32;33343;-85
2021/03/25 08:05:50;;;;;;;17.70;9.57;;;;;;;11.73;29.94;100536.88;4456696;32;34127;-85
2021/03/25 08:08:33;;;;;;;13.40;9.38;;;;;;;11.61;30.53;100527.22;4456496;32;34364;-84
2021/03/25 08:11:07;;;;;;;16.85;9.43;;;;;;;11.66;29.39;100535.06;4444454;32;35439;-84
2021/03/25 08:13:36;;;;;;;17.42;9.13;;;;;;;11.68;28.94;100526.44;4456420;32;32207;-85
2021/03/25 08:16:17;;;;;;;16.95;9.63;;;;;;;11.82;29.32;100527.38;4473612;32;34421;-85
2021/03/25 08:19:11;;;;;;;16.87;9.65;;;;;;;11.95;29.35;100525.75;4462373;32;34064;-85
2021/03/25 08:21:42;;;;;;;14.80;8.23;;;;;;;12.01;29.07;100526.62;4472653;32;33876;-85
2021/03/25 08:24:31;;;;;;;13.07;8.07;;;;;;;12.27;28.70;100524.16;4450573;32;33348;-85
2021/03/25 08:27:40;;;;;;;15.32;9.25;;;;;;;12.23;29.43;100525.88;4431065;32;33779;-85
2021/03/25 08:30:22;;;;;;;14.55;8.82;;;;;;;12.38;28.14;100521.59;4470454;32;34362;-85
2021/03/25 08:33:26;;;;;;;15.82;8.40;;;;;;;12.42;27.63;100513.78;4455313;32;33638;-86
2021/03/25 08:36:22;;;;;;;19.15;8.95;;;;;;;12.38;27.46;100517.25;4464839;32;33731;-85
2021/03/25 08:38:49;;;;;;;13.88;9.18;;;;;;;12.77;27.19;100516.50;4472078;32;34011;-84
2021/03/25 08:41:25;;;;;;;13.45;9.40;;;;;;;13.03;27.97;100512.19;4486623;32;35170;-85
2021/03/25 08:44:13;;;;;;;15.95;10.00;;;;;;;13.24;26.99;100508.78;4456407;32;33431;-85
2021/03/25 08:46:53;;;;;;;18.75;8.98;;;;;;;13.43;26.74;100507.91;4464759;32;33073;-85
2021/03/25 08:49:39;;;;;;;28.40;9.98;;;;;;;13.19;27.22;100506.13;4470258;32;34146;-85
2021/03/25 08:52:10;;;;;;;17.75;10.68;;;;;;;13.04;27.93;100505.22;4469951;32;34566;-85
2021/03/25 08:54:44;;;;;;;18.27;10.63;;;;;;;13.37;27.72;100503.53;4470176;32;33919;-85
2021/03/25 08:57:20;;;;;;;20.35;11.68;;;;;;;13.29;28.78;100501.78;4457029;32;34182;-85
2021/03/25 09:00:26;;;;;;;19.50;11.73;;;;;;;13.32;29.92;100497.44;4469802;32;33815;-85
2021/03/25 09:02:57;;;;;;;24.10;12.35;;;;;;;13.44;30.38;100499.16;4456929;32;34879;-85
2021/03/25 09:05:32;;;;;;;18.55;12.02;;;;;;;13.68;29.55;100499.16;4444452;32;34478;-85
2021/03/25 09:08:03;;;;;;;18.92;12.20;;;;;;;13.86;29.39;100491.25;4449940;32;33381;-86
2021/03/25 09:10:38;;;;;;;20.05;11.75;;;;;;;13.66;29.83;100495.66;4459615;32;33029;-85
2021/03/25 09:13:18;;;;;;;19.52;12.48;;;;;;;13.87;29.70;100495.63;4472649;32;34254;-86
2021/03/25 09:15:46;;;;;;;20.80;12.10;;;;;;;13.59;30.48;100486.09;4460394;32;33852;-86
2021/03/25 09:18:17;;;;;;;20.33;11.95;;;;;;;13.20;31.09;100499.16;4469316;32;33310;-86
2021/03/25 09:20:52;;;;;;;18.67;12.07;;;;;;;13.61;30.25;100486.97;4457126;32;34738;-86
2021/03/25 09:23:29;;;;;;;20.40;11.85;;;;;;;13.78;30.27;100484.31;4443694;32;34958;-86
2021/03/25 09:26:01;;;;;;;21.02;11.45;;;;;;;13.88;31.02;100484.25;4456016;32;33355;-85
2021/03/25 09:28:59;;;;;;;20.00;11.98;;;;;;;13.82;29.70;100481.69;4466088;32;33140;-86
2021/03/25 09:31:29;;;;;;;20.05;12.23;;;;;;;13.67;30.10;100481.69;4473664;32;34623;-85
2021/03/25 09:34:12;;;;;;;19.58;12.25;;;;;;;13.47;30.38;100480.87;4447475;32;33950;-86
2021/03/25 09:36:42;;;;;;;21.27;13.07;;;;;;;13.76;30.17;100473.00;4456598;32;33696;-86
2021/03/25 09:39:20;;;;;;;24.20;12.98;;;;;;;14.06;30.29;100468.53;4456605;32;32990;-85
2021/03/25 09:41:47;;;;;;;25.48;14.45;;;;;;;13.69;31.09;100480.00;4456312;32;34546;-85
2021/03/25 09:44:19;;;;;;;19.60;12.98;;;;;;;13.89;31.29;100469.44;4455861;32;34858;-85
2021/03/25 09:46:58;;;;;;;21.52;14.18;;;;;;;14.35;30.65;100467.56;4456163;32;32722;-85
2021/03/25 09:49:46;;;;;;;22.33;15.05;;;;;;;13.99;32.49;100473.78;4443863;32;33014;-85
2021/03/25 09:52:26;;;;;;;21.05;14.50;;;;;;;14.34;32.01;100471.94;4456518;32;33934;-85
2021/03/25 09:54:53;;;;;;;23.25;13.48;;;;;;;14.45;30.97;100466.66;4456135;32;33354;-85
2021/03/25 09:57:30;;;;;;;25.00;15.50;;;;;;;14.84;30.71;100471.63;4457012;32;34733;-85
2021/03/25 10:00:02;;;;;;;20.58;13.82;;;;;;;14.27;31.22;100464.94;4467808;32;32515;-85
2021/03/25 10:02:38;;;;;;;27.42;12.48;;;;;;;14.52;30.38;100469.22;4476985;32;33777;-86
2021/03/25 10:05:24;;;;;;;24.60;15.75;;;;;;;14.66;47.15;100469.16;4471316;32;34880;-84
2021/03/25 10:07:51;;;;;;;22.45;13.70;;;;;;;15.16;31.66;100469.66;4465821;32;34231;-84
2021/03/25 10:10:47;;;;;;;20.75;13.52;;;;;;;15.38;33.47;100457.25;4456618;32;33114;-84
2021/03/25 10:13:31;;;;;;;20.27;14.32;;;;;;;15.70;35.96;100462.19;4444582;32;33481;-84
2021/03/25 10:16:00;;;;;;;21.55;13.23;;;;;;;14.93;39.89;100458.47;4443504;32;36454;-84
2021/03/25 10:18:31;;;;;;;22.33;14.77;;;;;;;15.05;38.51;100453.13;4470668;32;34224;-85
2021/03/25 10:21:07;;;;;;;20.08;13.73;;;;;;;14.48;31.17;100448.28;4457984;32;35802;-85
2021/03/25 10:23:49;;;;;;;20.90;13.55;;;;;;;14.60;31.38;100451.72;4442195;32;33031;-85
2021/03/25 10:26:39;;;;;;;18.25;11.80;;;;;;;14.05;31.73;100455.44;4486817;32;35062;-85
2021/03/25 10:29:31;;;;;;;20.88;12.63;;;;;;;14.16;30.94;100451.06;4474666;32;34078;-83
2021/03/25 10:32:01;;;;;;;18.92;13.70;;;;;;;14.03;31.29;100450.22;4472396;32;33183;-84
2021/03/25 10:34:32;;;;;;;19.10;12.43;;;;;;;13.85;31.87;100437.22;4469093;32;33902;-84
2021/03/25 10:37:11;;;;;;;26.08;14.60;;;;;;;14.16;31.74;100441.47;4456795;32;36453;-84
2021/03/25 10:39:43;;;;;;;23.20;14.75;;;;;;;14.23;34.36;100443.19;4470724;32;34574;-84
2021/03/25 10:42:33;;;;;;;27.83;14.63;;;;;;;14.55;31.17;100440.41;4456393;32;32876;-84
2021/03/25 10:45:21;;;;;;;22.05;13.95;;;;;;;14.59;31.16;100433.41;4469435;32;33832;-84
2021/03/25 10:47:53;;;;;;;21.92;13.95;;;;;;;14.30;31.53;100444.03;4469002;32;34354;-84
2021/03/25 10:50:33;;;;;;;25.52;14.77;;;;;;;14.34;31.79;100434.41;4455627;32;33906;-83
2021/03/25 10:53:02;;;;;;;22.58;15.05;;;;;;;14.26;34.25;100437.91;4467934;32;33055;-83
2021/03/25 10:55:37;;;;;;;24.08;15.07;;;;;;;14.69;32.27;100432.47;4455523;32;34055;-84
2021/03/25 10:58:06;;;;;;;23.60;14.85;;;;;;;14.83;32.26;100433.25;4456455;32;34241;-84
2021/03/25 11:00:37;;;;;;;26.17;16.02;;;;;;;14.39;33.58;100420.44;4470655;32;34431;-84
2021/03/25 11:03:28;;;;;;;26.40;15.80;;;;;;;14.09;33.19;100421.44;4458798;32;33366;-84
2021/03/25 11:05:58;;;;;;;25.27;15.18;;;;;;;14.36;33.54;100419.59;4468115;32;33608;-84
2021/03/25 11:08:46;;;;;;;22.83;15.77;;;;;;;14.48;32.74;100423.00;4451778;32;34928;-84
2021/03/25 11:11:16;;;;;;;23.05;14.52;;;;;;;14.70;32.50;100421.97;4455981;32;33924;-84
2021/03/25 11:14:00;;;;;;;23.70;15.38;;;;;;;14.48;32.58;100425.62;4456230;32;33404;-84
2021/03/25 11:16:28;;;;;;;20.95;15.25;;;;;;;14.59;33.00;100426.44;4469245;32;34879;-86
2021/03/25 11:19:06;;;;;;;25.42;14.75;;;;;;;14.77;31.52;100421.06;4456355;32;33941;-85
2021/03/25 11:21:38;;;;;;;23.60;14.75;;;;;;;14.78;31.41;100414.97;4468802;32;33887;-86
2021/03/25 11:24:30;;;;;;;26.17;15.10;;;;;;;14.80;31.89;100414.94;4458714;32;33414;-84
2021/03/25 11:26:59;;;;;;;23.80;15.68;;;;;;;14.67;32.65;100408.03;4459370;32;34613;-84
2021/03/25 11:29:34;;;;;;;24.10;15.05;;;;;;;14.89;32.26;100412.25;4443789;32;34543;-82
2021/03/25 11:32:14;;;;;;;23.73;16.00;;;;;;;14.96;31.70;100405.19;4458883;32;33857;-84
2021/03/25 11:34:44;;;;;;;26.20;15.57;;;;;;;15.03;31.79;100399.91;4469896;32;33765;-84
2021/03/25 11:37:30;;;;;;;23.02;14.98;;;;;;;14.89;32.37;100401.75;4455388;32;34663;-84
2021/03/25 11:40:06;;;;;;;24.45;15.07;;;;;;;14.49;32.55;100395.06;4469308;32;35445;-84
2021/03/25 11:42:34;;;;;;;23.85;14.95;;;;;;;14.99;32.08;100392.94;4454901;32;35411;-83
2021/03/25 11:45:03;;;;;;;22.37;14.70;;;;;;;15.13;30.69;100395.44;4455182;32;35986;-84
2021/03/25 11:47:32;;;;;;;22.35;14.32;;;;;;;15.20;31.14;100387.50;4447522;32;33575;-84
2021/03/25 11:50:04;;;;;;;20.20;14.82;;;;;;;14.93;31.08;100389.53;4468852;32;33194;-84
2021/03/25 11:52:41;;;;;;;22.35;15.07;;;;;;;14.92;31.26;100391.28;4468201;32;33945;-84
2021/03/25 11:55:19;;;;;;;21.08;14.35;;;;;;;14.92;30.50;100383.41;4471202;32;33151;-84
2021/03/25 11:57:47;;;;;;;20.33;13.48;;;;;;;15.21;30.78;100381.41;4470677;32;34470;-84